FABM

Bethlehem Airport

Bethlehem, South Africa
METAR FABM 190647Z 05001KT CAVOK 04/M00 Q1035
Observed Flight Rules
Jul-19 @ 06:47 UTC (45 minutes ago) Visual Flight Rules
Wind Visibility Clouds
50° at 1 knots 10,000+ meters
  • Clear skies
Temperatures Readings
Current 4°C / 39°F
Dewpoint 0°C / 32°F
Humidity 75%
Altimeter 30.56" Hg
Pressure 1035 hPa
Elevation 1682
METAR FABM 190647Z 05001KT CAVOK 04/M00 Q1035
Observed Flight Rules
Jul-19 @ 06:47 UTC
(45 minutes ago)
VFR
Wind Visibility
50° at 1 knots 10,000+ meters
Clouds
  • Clear skies
Temperature Dewpoint
4°C / 39°F 0°C / 32°F
Humidity Altimeter Pressure
75% 30.56" Hg 1035 hPa